Time;durP1;ratioP1;P1;durP2;ratioP2;P2;SDS_P1;SDS_P2;PMS_P1;PMS_P2;Temp;Humidity;BMP_temperature;BMP_pressure;BME280_temperature;BME280_humidity;BME280_pressure;Samples;Min_cycle;Max_cycle;Signal;HPM_P1;HPM_P2
2022/11/10 00:00:28;;;;;;;0.50;0.20;;;12.30;1.00;;;;;;4956038;29;20443;-72
2022/11/10 00:03:00;;;;;;;0.50;0.10;;;12.20;1.00;;;;;;4955140;29;20447;-72
2022/11/10 00:05:28;;;;;;;0.50;0.10;;;12.20;1.00;;;;;;4955623;29;20503;-71
2022/11/10 00:08:01;;;;;;;0.50;0.10;;;12.20;1.00;;;;;;4955190;29;20527;-72
2022/11/10 00:10:29;;;;;;;0.50;0.10;;;12.20;1.00;;;;;;4955501;29;20566;-71
2022/11/10 00:13:00;;;;;;;0.50;0.10;;;12.20;1.00;;;;;;4955059;29;20806;-72
2022/11/10 00:18:14;;;;;;;0.60;0.30;;;12.20;1.00;;;;;;4955400;29;20443;-71
2022/11/10 00:20:41;;;;;;;0.50;0.10;;;12.20;1.00;;;;;;4955180;29;20469;-70
2022/11/10 00:23:10;;;;;;;0.50;0.10;;;12.20;1.00;;;;;;4954841;29;20443;-71
2022/11/10 00:25:38;;;;;;;0.50;0.10;;;12.20;1.00;;;;;;4954936;29;20443;-71
2022/11/10 00:28:06;;;;;;;0.50;0.10;;;12.20;1.00;;;;;;4954702;29;20454;-70
2022/11/10 00:30:36;;;;;;;0.50;0.10;;;12.20;1.00;;;;;;4954897;29;20487;-71
2022/11/10 00:33:04;;;;;;;0.50;0.10;;;12.20;1.00;;;;;;4954375;29;20451;-72
2022/11/10 00:35:32;;;;;;;0.50;0.10;;;12.20;1.00;;;;;;4954792;29;20863;-71
2022/11/10 00:37:59;;;;;;;0.50;0.10;;;12.20;1.00;;;;;;4954806;29;20497;-72
2022/11/10 00:40:29;;;;;;;0.50;0.10;;;12.20;1.00;;;;;;4954749;29;20439;-73
2022/11/10 00:42:56;;;;;;;0.50;0.20;;;12.10;1.00;;;;;;4954739;29;20451;-72
2022/11/10 00:45:24;;;;;;;0.50;0.10;;;12.10;1.00;;;;;;4954525;29;20997;-72
2022/11/10 00:47:52;;;;;;;0.60;0.43;;;12.10;1.00;;;;;;4954499;29;20969;-70
2022/11/10 00:50:20;;;;;;;0.50;0.10;;;12.10;1.00;;;;;;4954689;29;20479;-72
2022/11/10 00:52:48;;;;;;;0.50;0.10;;;12.10;1.00;;;;;;4954315;29;20455;-73
2022/11/10 00:55:15;;;;;;;0.50;0.10;;;12.00;1.00;;;;;;4954237;29;20970;-72
2022/11/10 00:57:44;;;;;;;0.50;0.10;;;12.00;1.00;;;;;;4954570;29;20451;-71
2022/11/10 01:00:13;;;;;;;0.50;0.10;;;12.00;1.00;;;;;;4954111;29;20455;-71
2022/11/10 05:02:52;;;;;;;0.70;0.40;;;10.30;1.00;;;;;;4962269;23;20490;-72
2022/11/10 05:05:20;;;;;;;0.60;0.30;;;10.00;1.00;;;;;;4938529;29;20448;-72
2022/11/10 05:07:48;;;;;;;1.90;1.80;;;10.00;1.00;;;;;;4946721;29;21006;-73
2022/11/10 05:10:16;;;;;;;0.50;0.20;;;10.10;1.00;;;;;;4948765;29;20881;-72
2022/11/10 05:12:44;;;;;;;0.60;0.23;;;;;;;;;;4936906;29;20527;-71
2022/11/10 05:15:12;;;;;;;2.50;2.30;;;10.10;1.00;;;;;;4940517;29;20489;-71
2022/11/10 05:17:39;;;;;;;0.60;0.50;;;10.10;1.00;;;;;;4954224;29;20495;-73
2022/11/10 05:20:10;;;;;;;0.50;0.10;;;10.10;1.00;;;;;;4959186;29;20447;-73
2022/11/10 05:22:37;;;;;;;1.17;1.07;;;10.10;1.00;;;;;;4951726;28;20502;-73
2022/11/10 05:25:07;;;;;;;0.50;0.10;;;10.10;1.00;;;;;;4953285;28;20463;-73
2022/11/10 05:27:35;;;;;;;1.17;0.20;;;10.10;1.00;;;;;;4955845;28;20443;-72
2022/11/10 05:30:02;;;;;;;7.23;0.70;;;10.10;1.00;;;;;;4959025;28;20471;-72
2022/11/10 05:32:30;;;;;;;1.20;0.37;;;10.10;1.00;;;;;;4953412;29;20505;-73
2022/11/10 05:34:58;;;;;;;0.50;0.10;;;10.10;1.00;;;;;;4953829;29;20458;-73
2022/11/10 05:37:27;;;;;;;0.50;0.20;;;10.00;1.00;;;;;;4953885;29;20846;-72
2022/11/10 05:39:55;;;;;;;0.50;0.10;;;10.00;1.00;;;;;;4953915;29;20451;-72
2022/11/10 05:42:22;;;;;;;0.50;0.17;;;10.00;1.00;;;;;;4953520;29;20883;-72
2022/11/10 05:44:50;;;;;;;0.50;0.20;;;10.00;1.00;;;;;;4953389;29;20455;-72
2022/11/10 05:47:18;;;;;;;0.50;0.10;;;10.10;1.00;;;;;;4953765;28;20455;-73
2022/11/10 05:49:46;;;;;;;0.50;0.20;;;10.00;1.00;;;;;;4953492;29;20569;-73
2022/11/10 05:52:13;;;;;;;1.33;0.67;;;9.90;1.00;;;;;;4953427;29;20506;-73
2022/11/10 05:54:42;;;;;;;0.50;0.30;;;9.90;1.00;;;;;;4954047;29;20451;-72
2022/11/10 05:57:10;;;;;;;2.20;1.80;;;10.00;1.00;;;;;;4953720;29;20465;-74
2022/11/10 05:59:38;;;;;;;2.83;2.03;;;10.00;1.00;;;;;;4953506;29;20479;-72
2022/11/10 06:02:05;;;;;;;0.70;0.50;;;10.10;1.00;;;;;;4953271;29;20475;-72
2022/11/10 06:04:33;;;;;;;0.50;0.20;;;10.10;1.00;;;;;;4953660;29;20459;-71
2022/11/10 06:07:01;;;;;;;0.50;0.10;;;10.00;1.00;;;;;;4955435;28;20533;-72
2022/11/10 06:09:30;;;;;;;0.50;0.10;;;10.00;1.00;;;;;;4949812;28;20502;-74
2022/11/10 06:11:59;;;;;;;0.50;0.30;;;10.00;1.00;;;;;;4947073;28;21013;-70
2022/11/10 06:14:27;;;;;;;0.60;0.40;;;10.00;1.00;;;;;;4949722;29;20464;-73
2022/11/10 06:16:55;;;;;;;0.70;0.40;;;10.00;1.00;;;;;;4951058;29;20447;-73
2022/11/10 06:19:22;;;;;;;0.50;0.20;;;9.90;1.00;;;;;;4953629;29;20455;-73
2022/11/10 06:21:50;;;;;;;0.60;0.27;;;9.90;1.00;;;;;;4952661;29;20989;-73
2022/11/10 06:24:27;;;;;;;0.50;0.10;;;9.90;1.00;;;;;;4939966;29;20499;-72
2022/11/10 06:26:55;;;;;;;0.50;0.10;;;9.90;1.00;;;;;;4935424;29;20452;-73
2022/11/10 06:29:24;;;;;;;0.50;0.10;;;9.90;1.00;;;;;;4953240;29;20443;-73
2022/11/10 06:31:53;;;;;;;0.50;0.20;;;10.00;1.00;;;;;;4952187;29;20486;-69
2022/11/10 06:34:21;;;;;;;0.60;0.30;;;8.90;1.00;;;;;;4948271;29;20883;-73
2022/11/10 06:36:49;;;;;;;1.00;0.30;;;10.00;1.00;;;;;;4940901;29;20448;-72
2022/11/10 06:39:17;;;;;;;0.50;0.10;;;10.00;1.00;;;;;;4936145;29;20519;-72
2022/11/10 06:41:44;;;;;;;1.17;0.77;;;10.00;1.00;;;;;;4951558;29;20531;-71
2022/11/10 06:44:12;;;;;;;0.80;0.50;;;10.00;1.00;;;;;;4952249;29;20565;-74
2022/11/10 06:46:41;;;;;;;0.80;0.70;;;10.00;1.00;;;;;;4953113;29;20502;-74
2022/11/10 06:49:09;;;;;;;0.50;0.10;;;10.10;1.00;;;;;;4950849;29;20466;-74
2022/11/10 06:51:37;;;;;;;0.50;0.20;;;10.10;1.00;;;;;;4949313;29;20859;-74
2022/11/10 06:54:05;;;;;;;0.50;0.10;;;10.10;1.00;;;;;;4947163;29;20479;-72
2022/11/10 06:56:33;;;;;;;0.80;0.70;;;10.20;1.00;;;;;;4951240;29;20450;-71
2022/11/10 06:59:01;;;;;;;0.50;0.20;;;12.30;1.00;;;;;;4939093;28;20459;-71
2022/11/10 07:01:29;;;;;;;0.50;0.10;;;10.20;1.00;;;;;;4956125;29;20985;-70
2022/11/10 07:03:58;;;;;;;0.50;0.10;;;10.10;1.00;;;;;;4955895;29;20450;-70
2022/11/10 07:06:46;;;;;;;0.50;0.10;;;10.10;1.00;;;;;;4945591;29;20431;-69
2022/11/10 07:09:15;;;;;;;0.50;0.10;;;10.10;1.00;;;;;;4954659;29;20961;-70
2022/11/10 07:11:43;;;;;;;0.50;0.10;;;10.20;1.00;;;;;;4955771;29;20555;-70
2022/11/10 07:14:10;;;;;;;0.53;0.30;;;10.20;1.00;;;;;;4955658;29;20459;-69
2022/11/10 07:16:38;;;;;;;0.50;0.10;;;10.20;1.00;;;;;;4954494;29;20541;-68
2022/11/10 07:19:08;;;;;;;0.60;0.47;;;10.00;1.00;;;;;;4941863;29;20841;-69
2022/11/10 07:21:35;;;;;;;0.50;0.10;;;9.90;1.00;;;;;;4938418;29;20460;-69
2022/11/10 07:24:04;;;;;;;0.70;0.50;;;9.80;1.00;;;;;;4955987;29;20518;-69
2022/11/10 07:26:32;;;;;;;0.50;0.20;;;9.80;1.00;;;;;;4956151;29;20462;-69
2022/11/10 07:29:00;;;;;;;2.10;0.70;;;9.80;1.00;;;;;;4955902;29;20451;-70
2022/11/10 07:31:27;;;;;;;0.50;0.27;;;9.80;1.00;;;;;;4954045;29;20490;-70
2022/11/10 07:33:55;;;;;;;0.60;0.27;;;9.80;1.00;;;;;;4955227;29;20993;-68
2022/11/10 07:36:27;;;;;;;0.50;0.10;;;9.90;1.00;;;;;;4943126;29;20452;-70
2022/11/10 07:38:55;;;;;;;0.60;0.37;;;9.90;1.00;;;;;;4953757;29;20451;-70
2022/11/10 07:41:23;;;;;;;3.23;2.90;;;10.00;1.00;;;;;;4955537;29;20467;-70
2022/11/10 07:43:51;;;;;;;0.80;0.40;;;10.00;1.00;;;;;;4955330;29;20474;-71
2022/11/10 07:46:18;;;;;;;6.37;4.13;;;10.00;1.00;;;;;;4955667;29;20506;-72
2022/11/10 07:48:47;;;;;;;0.57;0.27;;;10.00;1.00;;;;;;4955611;29;20971;-69
2022/11/10 07:51:15;;;;;;;1.07;0.70;;;10.70;1.00;;;;;;4941658;29;20521;-71
2022/11/10 07:53:44;;;;;;;0.50;0.10;;;10.00;1.00;;;;;;4953507;29;20510;-73
2022/11/10 07:56:13;;;;;;;0.50;0.10;;;10.00;1.00;;;;;;4948676;29;20455;-70
2022/11/10 07:58:41;;;;;;;1.50;1.40;;;;;;;;;;4949250;29;20455;-69
2022/11/10 08:01:10;;;;;;;0.50;0.20;;;10.10;1.00;;;;;;4941739;29;20986;-69
2022/11/10 08:03:37;;;;;;;5.50;1.33;;;10.10;1.00;;;;;;4952864;29;20612;-69
2022/11/10 08:06:06;;;;;;;0.50;0.17;;;10.10;1.00;;;;;;4949420;29;20526;-71
2022/11/10 08:08:33;;;;;;;1.63;1.40;;;10.10;1.00;;;;;;4954200;29;20940;-71
2022/11/10 08:11:02;;;;;;;0.60;0.37;;;10.10;1.00;;;;;;4952130;28;20561;-73
2022/11/10 08:13:30;;;;;;;3.90;1.13;;;10.10;1.00;;;;;;4947320;29;20514;-70
2022/11/10 08:15:58;;;;;;;3.10;1.10;;;10.20;1.00;;;;;;4953093;29;20450;-69
2022/11/10 08:18:26;;;;;;;0.60;0.50;;;10.20;1.00;;;;;;4942985;29;20458;-69
2022/11/10 08:21:02;;;;;;;1.60;0.70;;;10.30;1.00;;;;;;4947789;29;20467;-72
2022/11/10 08:23:33;;;;;;;0.80;0.50;;;10.20;1.00;;;;;;4948983;29;20468;-74
2022/11/10 08:26:03;;;;;;;1.87;1.70;;;10.20;1.00;;;;;;4948191;29;20519;-70
2022/11/10 08:28:31;;;;;;;0.60;0.30;;;11.20;1.00;;;;;;4954858;29;20558;-70
2022/11/10 08:30:58;;;;;;;0.60;0.40;;;10.40;1.00;;;;;;4955009;29;20471;-70
2022/11/10 08:33:32;;;;;;;1.63;1.07;;;10.40;1.00;;;;;;4955743;29;20454;-74
2022/11/10 08:36:01;;;;;;;42.87;37.20;;;10.40;1.00;;;;;;4955070;29;20467;-69
2022/11/10 08:38:28;;;;;;;1.23;0.47;;;10.50;1.00;;;;;;4955071;29;20439;-69
2022/11/10 08:40:57;;;;;;;2.13;1.20;;;10.50;1.00;;;;;;4954554;29;20471;-71
2022/11/10 08:43:27;;;;;;;0.77;0.30;;;10.50;1.00;;;;;;4951048;29;20864;-70
2022/11/10 08:45:56;;;;;;;0.60;0.37;;;10.60;1.00;;;;;;4935934;29;20455;-72
2022/11/10 08:48:24;;;;;;;0.83;0.83;;;10.60;1.00;;;;;;4949943;29;20541;-74
2022/11/10 08:50:52;;;;;;;0.83;0.57;;;;;;;;;;4952578;29;20485;-73
2022/11/10 08:53:23;;;;;;;1.27;1.17;;;10.70;1.00;;;;;;4953306;29;20570;-73
2022/11/10 08:55:52;;;;;;;0.97;0.83;;;10.80;1.00;;;;;;4953552;28;20459;-74
2022/11/10 08:58:23;;;;;;;4.43;2.47;;;10.80;1.00;;;;;;4960450;28;20447;-73
2022/11/10 09:00:52;;;;;;;6.17;5.53;;;10.90;1.00;;;;;;4956907;29;20474;-73
2022/11/10 09:03:22;;;;;;;0.70;0.67;;;10.90;1.00;;;;;;4957835;29;20807;-73
2022/11/10 09:05:52;;;;;;;1.20;1.10;;;10.90;1.00;;;;;;4959814;29;20466;-72
2022/11/10 09:08:26;;;;;;;1.37;0.40;;;11.00;1.00;;;;;;4948390;29;20455;-72
2022/11/10 09:10:54;;;;;;;0.50;0.20;;;11.10;1.00;;;;;;4949720;29;20482;-75
2022/11/10 09:13:23;;;;;;;0.50;0.10;;;11.20;1.00;;;;;;4946131;28;20567;-74
2022/11/10 09:16:01;;;;;;;0.60;0.57;;;11.30;1.00;;;;;;4954216;29;20869;-73
2022/11/10 09:18:29;;;;;;;0.50;0.27;;;11.40;1.00;;;;;;4950868;29;20870;-74
2022/11/10 09:20:57;;;;;;;0.60;0.40;;;11.50;1.00;;;;;;4952067;29;21114;-73
2022/11/10 09:23:27;;;;;;;0.50;0.20;;;11.60;1.00;;;;;;4952074;28;20475;-74
2022/11/10 09:25:56;;;;;;;0.53;0.10;;;11.60;1.00;;;;;;4953850;29;20463;-74
2022/11/10 09:28:24;;;;;;;0.50;0.10;;;11.70;1.00;;;;;;4953974;29;20553;-74
2022/11/10 09:30:53;;;;;;;0.60;0.20;;;11.80;1.00;;;;;;4955238;29;20481;-72
2022/11/10 09:33:22;;;;;;;11.10;0.60;;;11.80;1.00;;;;;;4953858;29;20487;-74
2022/11/10 09:35:51;;;;;;;0.50;0.10;;;11.80;1.00;;;;;;4953884;29;20458;-71
2022/11/10 09:38:19;;;;;;;1.70;1.60;;;11.80;1.00;;;;;;4954030;29;20822;-72
2022/11/10 09:40:59;;;;;;;0.60;0.40;;;12.00;1.00;;;;;;4953111;29;20483;-71
2022/11/10 09:43:34;;;;;;;0.93;0.90;;;12.00;1.00;;;;;;4951815;29;20465;-72
2022/11/10 09:46:10;;;;;;;0.63;0.63;;;12.20;1.00;;;;;;4947534;29;20549;-72
2022/11/10 09:48:47;;;;;;;0.60;0.23;;;12.20;99.90;;;;;;4949624;29;20468;-71
2022/11/10 09:51:19;;;;;;;0.90;0.73;;;12.20;99.90;;;;;;4947123;28;20475;-72
2022/11/10 09:53:51;;;;;;;0.70;0.67;;;12.20;99.90;;;;;;4944355;29;20487;-71
2022/11/10 09:56:22;;;;;;;0.60;0.10;;;12.30;99.90;;;;;;4954480;29;20550;-72
2022/11/10 09:58:51;;;;;;;3.50;1.13;;;12.30;99.90;;;;;;4904217;28;20595;-72
2022/11/10 10:01:30;;;;;;;0.60;0.40;;;12.50;99.90;;;;;;4915031;29;20991;-72
2022/11/10 10:04:12;;;;;;;0.60;0.53;;;12.50;99.90;;;;;;4910427;29;20469;-71
2022/11/10 10:06:46;;;;;;;0.60;0.37;;;12.60;99.90;;;;;;4927311;29;20515;-71
2022/11/10 10:09:44;;;;;;;0.60;0.30;;;12.60;99.90;;;;;;4934658;29;20539;-71
2022/11/10 10:12:24;;;;;;;2.90;2.30;;;12.60;99.90;;;;;;4925651;29;20522;-72
2022/11/10 10:15:13;;;;;;;1.03;0.50;;;12.50;99.90;;;;;;4927513;29;20460;-71
2022/11/10 10:17:49;;;;;;;0.60;0.30;;;12.50;99.90;;;;;;4934622;29;20444;-73
2022/11/10 10:20:27;;;;;;;1.20;1.10;;;11.60;99.90;;;;;;4934483;29;20448;-72
2022/11/10 10:23:12;;;;;;;2.33;0.70;;;12.40;99.90;;;;;;4934737;29;20535;-73
2022/11/10 10:25:44;;;;;;;1.17;1.03;;;11.50;99.90;;;;;;4933836;29;20450;-72
2022/11/10 10:28:19;;;;;;;1.00;0.57;;;12.30;99.90;;;;;;4934161;29;20903;-71
2022/11/10 10:30:48;;;;;;;1.13;0.40;;;12.30;99.90;;;;;;4933340;29;20506;-74
2022/11/10 10:33:18;;;;;;;1.37;1.27;;;12.30;99.90;;;;;;4933649;29;20515;-71
2022/11/10 10:35:49;;;;;;;1.57;1.13;;;12.30;99.90;;;;;;4936626;29;20456;-73
2022/11/10 10:38:23;;;;;;;0.70;0.20;;;12.30;99.90;;;;;;4937604;29;20495;-73
2022/11/10 10:40:52;;;;;;;12.30;1.93;;;12.40;99.90;;;;;;4931495;29;20476;-73
2022/11/10 10:43:20;;;;;;;0.77;0.50;;;12.40;99.90;;;;;;4933511;29;20475;-71
2022/11/10 10:46:05;;;;;;;0.60;0.10;;;12.40;99.90;;;;;;4932940;29;20466;-73
2022/11/10 10:48:33;;;;;;;0.60;0.30;;;12.60;99.90;;;;;;4935443;29;20452;-73
2022/11/10 10:51:02;;;;;;;1.00;0.93;;;12.70;99.90;;;;;;4937282;29;20467;-72
2022/11/10 10:53:30;;;;;;;8.23;1.57;;;12.80;99.90;;;;;;4936295;29;20479;-73
2022/11/10 10:56:00;;;;;;;0.60;0.10;;;12.80;99.90;;;;;;4936461;29;20927;-72
2022/11/10 10:58:30;;;;;;;0.80;0.50;;;13.00;99.90;;;;;;4937733;29;20451;-73
2022/11/10 11:01:05;;;;;;;9.07;1.70;;;13.10;99.90;;;;;;4936326;29;20848;-73
2022/11/10 11:03:44;;;;;;;1.67;1.57;;;13.10;99.90;;;;;;4937204;29;20892;-73
2022/11/10 11:06:25;;;;;;;0.60;0.10;;;12.90;99.90;;;;;;4936946;29;20867;-73
2022/11/10 11:08:56;;;;;;;0.80;0.73;;;12.90;99.90;;;;;;4936912;29;20448;-74
2022/11/10 11:11:29;;;;;;;0.60;0.30;;;13.00;99.90;;;;;;4931148;29;20909;-72
2022/11/10 11:14:22;;;;;;;0.60;0.10;;;13.00;99.90;;;;;;4936528;29;21207;-72
2022/11/10 11:16:52;;;;;;;0.60;0.10;;;13.10;99.90;;;;;;4922962;29;20565;-75
2022/11/10 11:19:22;;;;;;;0.90;0.67;;;13.20;99.90;;;;;;4936527;29;20494;-73
2022/11/10 11:22:11;;;;;;;0.60;0.20;;;13.30;99.90;;;;;;4935099;29;20887;-71
2022/11/10 11:24:45;;;;;;;0.60;0.10;;;13.40;99.90;;;;;;4932552;29;21006;-73
2022/11/10 11:27:18;;;;;;;2.27;1.60;;;13.50;99.90;;;;;;4930615;29;20452;-72
2022/11/10 11:30:05;;;;;;;0.60;0.10;;;13.60;99.90;;;;;;4934858;29;20997;-73
2022/11/10 11:32:54;;;;;;;0.60;0.20;;;13.60;99.90;;;;;;4936190;29;20888;-73
2022/11/10 11:35:30;;;;;;;0.60;0.20;;;13.70;99.90;;;;;;4936481;29;20519;-73
2022/11/10 11:38:10;;;;;;;0.60;0.10;;;13.70;99.90;;;;;;4936566;29;20448;-73
2022/11/10 11:40:47;;;;;;;0.60;0.20;;;13.80;99.90;;;;;;4933480;29;20467;-74
2022/11/10 11:43:34;;;;;;;0.60;0.20;;;13.80;99.90;;;;;;4935469;29;20781;-72
2022/11/10 11:46:11;;;;;;;0.70;0.40;;;13.90;99.90;;;;;;4932615;29;21024;-74
2022/11/10 11:48:50;;;;;;;1.77;1.37;;;14.10;99.90;;;;;;4936502;29;20452;-73
2022/11/10 11:51:24;;;;;;;0.73;0.30;;;14.10;99.90;;;;;;4936467;29;20504;-71
2022/11/10 11:54:13;;;;;;;0.60;0.10;;;14.20;99.90;;;;;;4934514;29;20491;-73
2022/11/10 11:56:42;;;;;;;1.10;0.87;;;14.20;99.90;;;;;;4935614;29;20885;-72
2022/11/10 11:59:36;;;;;;;0.60;0.10;;;14.20;99.90;;;;;;4936936;29;20479;-73
2022/11/10 12:02:30;;;;;;;0.70;0.30;;;14.20;99.90;;;;;;4936384;29;20487;-73
2022/11/10 12:05:10;;;;;;;0.60;0.10;;;14.20;99.90;;;;;;4932385;29;20463;-73
2022/11/10 12:07:49;;;;;;;1.07;0.63;;;14.20;99.90;;;;;;4936222;29;20879;-72
2022/11/10 12:10:32;;;;;;;1.57;0.30;;;14.00;99.90;;;;;;4932164;29;20547;-73
2022/11/10 12:13:21;;;;;;;1.30;1.03;;;13.90;99.90;;;;;;4929164;29;20488;-72
2022/11/10 12:15:57;;;;;;;0.60;0.10;;;14.00;99.90;;;;;;4923574;29;20456;-72
2022/11/10 12:18:35;;;;;;;0.60;0.10;;;14.00;99.90;;;;;;4935764;29;20464;-72
2022/11/10 12:21:21;;;;;;;0.60;0.20;;;14.10;99.90;;;;;;4933238;29;20535;-72
2022/11/10 12:24:04;;;;;;;0.60;0.20;;;14.10;99.90;;;;;;4928336;29;20637;-72
2022/11/10 12:26:45;;;;;;;0.60;0.20;;;14.00;99.90;;;;;;4935754;29;20821;-73
2022/11/10 12:29:27;;;;;;;0.60;0.10;;;14.10;99.90;;;;;;4934936;29;20946;-73
2022/11/10 12:32:02;;;;;;;0.60;0.10;;;14.10;99.90;;;;;;4934920;29;20475;-72
2022/11/10 12:34:36;;;;;;;0.60;0.10;;;14.00;99.90;;;;;;4935525;29;20550;-72
2022/11/10 12:37:08;;;;;;;0.57;0.10;;;14.00;99.90;;;;;;4932323;29;20536;-72
2022/11/10 12:39:46;;;;;;;0.60;0.30;;;14.00;99.90;;;;;;4935204;29;20870;-73
2022/11/10 12:42:20;;;;;;;0.60;0.20;;;14.00;99.90;;;;;;4932028;29;20476;-73
2022/11/10 12:44:59;;;;;;;0.60;0.10;;;14.00;99.90;;;;;;4934406;29;20446;-73
2022/11/10 12:47:31;;;;;;;1.17;1.07;;;13.10;99.90;;;;;;4922004;29;20459;-73
2022/11/10 12:50:19;;;;;;;0.70;0.27;;;14.00;99.90;;;;;;4932046;29;20947;-73
2022/11/10 12:52:55;;;;;;;0.80;0.20;;;14.00;99.90;;;;;;4933929;29;20487;-73
2022/11/10 12:55:32;;;;;;;3.03;1.90;;;14.10;99.90;;;;;;4928393;29;20543;-71
2022/11/10 12:58:03;;;;;;;0.60;0.10;;;14.30;99.90;;;;;;4934468;29;20460;-72
2022/11/10 13:00:36;;;;;;;0.70;0.37;;;14.20;99.90;;;;;;4934653;29;20460;-70
2022/11/10 13:03:04;;;;;;;0.70;0.50;;;14.20;99.90;;;;;;4934392;29;20460;-69
2022/11/10 13:05:37;;;;;;;0.60;0.10;;;14.20;99.90;;;;;;4928096;29;20529;-69
2022/11/10 13:08:21;;;;;;;0.60;0.20;;;14.20;99.90;;;;;;4931051;29;20460;-70
2022/11/10 13:10:53;;;;;;;0.60;0.20;;;14.30;99.90;;;;;;4922278;29;20474;-70
2022/11/10 13:13:24;;;;;;;1.27;0.70;;;14.20;99.90;;;;;;4916834;29;20515;-73
2022/11/10 13:15:56;;;;;;;0.60;0.10;;;14.40;99.90;;;;;;4916151;29;20453;-69
2022/11/10 13:18:42;;;;;;;0.90;0.43;;;14.40;99.90;;;;;;4925215;29;20467;-68
2022/11/10 13:21:10;;;;;;;1.03;0.50;;;14.40;99.90;;;;;;4918209;29;20507;-70
2022/11/10 13:24:15;;;;;;;0.60;0.10;;;14.40;99.90;;;;;;4934590;29;20503;-70
2022/11/10 13:26:51;;;;;;;0.60;0.20;;;14.50;99.90;;;;;;4934861;29;20463;-69
2022/11/10 13:29:31;;;;;;;0.70;0.43;;;14.50;99.90;;;;;;4934704;29;20818;-72
2022/11/10 13:32:00;;;;;;;0.60;0.40;;;14.50;99.90;;;;;;4929078;29;20484;-70
2022/11/10 13:34:33;;;;;;;3.73;0.80;;;14.50;99.90;;;;;;4920768;29;20530;-70
2022/11/10 13:37:02;;;;;;;0.60;0.10;;;14.60;99.90;;;;;;4934572;29;20463;-72
2022/11/10 13:39:32;;;;;;;0.60;0.10;;;14.50;99.90;;;;;;4934500;29;20463;-71
2022/11/10 13:42:03;;;;;;;0.80;0.57;;;14.50;99.90;;;;;;4932779;29;20590;-70
2022/11/10 13:44:35;;;;;;;0.60;0.10;;;14.50;99.90;;;;;;4930424;29;20480;-72
2022/11/10 13:47:40;;;;;;;0.60;0.10;;;14.60;99.90;;;;;;4920977;29;20458;-71
2022/11/10 13:50:21;;;;;;;0.60;0.10;;;14.60;99.90;;;;;;4934084;29;20499;-71
2022/11/10 13:53:02;;;;;;;1.23;0.73;;;14.80;99.90;;;;;;4933748;29;20895;-72
2022/11/10 13:55:55;;;;;;;2.10;0.30;;;14.70;99.90;;;;;;4926945;29;20527;-72
2022/11/10 13:58:27;;;;;;;0.93;0.83;;;14.80;99.90;;;;;;4931562;29;20492;-72
2022/11/10 14:01:21;;;;;;;0.70;0.30;;;14.80;99.90;;;;;;4933848;29;20533;-72
2022/11/10 14:03:59;;;;;;;1.53;0.70;;;14.80;99.90;;;;;;4933881;29;20511;-71
2022/11/10 14:06:37;;;;;;;1.47;0.50;;;14.60;99.90;;;;;;4930528;29;20444;-70
2022/11/10 14:09:17;;;;;;;0.60;0.20;;;14.50;99.90;;;;;;4933460;29;20891;-70
2022/11/10 14:11:48;;;;;;;0.60;0.10;;;14.50;99.90;;;;;;4937504;29;20953;-71
2022/11/10 14:14:21;;;;;;;0.60;0.10;;;14.50;99.90;;;;;;4937931;29;20503;-72
2022/11/10 14:16:52;;;;;;;0.60;0.10;;;14.50;99.90;;;;;;4935032;29;20522;-71
2022/11/10 14:19:29;;;;;;;0.60;0.10;;;14.50;99.90;;;;;;4934525;29;20876;-71
2022/11/10 14:22:00;;;;;;;0.60;0.10;;;14.50;99.90;;;;;;4929633;29;20957;-71
2022/11/10 14:24:30;;;;;;;0.60;0.10;;;14.50;99.90;;;;;;4936901;29;20459;-71
2022/11/10 14:27:04;;;;;;;0.93;0.30;;;14.50;99.90;;;;;;4937802;29;20490;-72
2022/11/10 14:29:37;;;;;;;0.60;0.10;;;14.50;99.90;;;;;;4937845;29;20448;-72
2022/11/10 14:32:14;;;;;;;0.60;0.10;;;14.60;99.90;;;;;;4932642;29;21010;-71
2022/11/10 14:34:49;;;;;;;0.60;0.20;;;14.60;99.90;;;;;;4927605;29;20485;-72
2022/11/10 14:37:23;;;;;;;0.60;0.10;;;14.60;99.90;;;;;;4936289;29;20458;-70
2022/11/10 14:39:53;;;;;;;0.60;0.10;;;14.60;99.90;;;;;;4932911;29;20467;-72
2022/11/10 14:42:24;;;;;;;0.60;0.10;;;14.70;99.90;;;;;;4931725;29;20486;-71
2022/11/10 14:45:06;;;;;;;0.60;0.10;;;14.70;99.90;;;;;;4927669;29;20995;-71
2022/11/10 14:47:36;;;;;;;2.03;0.90;;;14.70;99.90;;;;;;4937223;29;20942;-71
2022/11/10 14:50:17;;;;;;;0.60;0.10;;;14.60;99.90;;;;;;4937824;29;20893;-71
2022/11/10 14:52:47;;;;;;;1.00;0.53;;;14.70;99.90;;;;;;4931428;29;20476;-71
2022/11/10 14:55:19;;;;;;;0.60;0.20;;;14.70;99.90;;;;;;4918215;29;20988;-71
2022/11/10 14:57:50;;;;;;;0.60;0.10;;;14.60;99.90;;;;;;4935475;29;20857;-70
2022/11/10 15:00:23;;;;;;;0.60;0.10;;;14.70;99.90;;;;;;4937082;29;20970;-72
2022/11/10 15:02:54;;;;;;;0.60;0.10;;;;;;;;;;4936134;29;20539;-71
2022/11/10 15:05:22;;;;;;;0.60;0.13;;;14.60;99.90;;;;;;4929405;29;20457;-71
2022/11/10 15:07:56;;;;;;;0.70;0.30;;;14.60;99.90;;;;;;4931491;29;20987;-72
2022/11/10 15:10:26;;;;;;;0.80;0.40;;;14.60;99.90;;;;;;4931698;29;20475;-71
2022/11/10 15:13:05;;;;;;;0.60;0.20;;;14.50;99.90;;;;;;4937173;29;20504;-71
2022/11/10 15:15:33;;;;;;;0.60;0.20;;;14.50;99.90;;;;;;4927782;29;20488;-72
2022/11/10 15:18:02;;;;;;;0.60;0.10;;;14.50;99.90;;;;;;4937655;29;20459;-73
2022/11/10 15:20:33;;;;;;;0.97;0.80;;;14.50;99.90;;;;;;4920595;29;20982;-74
2022/11/10 15:23:03;;;;;;;0.60;0.20;;;14.50;99.90;;;;;;4933318;29;20456;-73
2022/11/10 15:25:35;;;;;;;0.60;0.10;;;14.50;99.90;;;;;;4921172;29;20440;-72
2022/11/10 15:28:20;;;;;;;0.60;0.20;;;14.40;99.90;;;;;;4930048;29;20935;-71
2022/11/10 15:30:50;;;;;;;0.60;0.10;;;;;;;;;;4917970;29;20440;-71
2022/11/10 15:33:25;;;;;;;0.60;0.10;;;14.20;99.90;;;;;;4917456;29;20440;-70
2022/11/10 15:35:55;;;;;;;2.50;0.40;;;14.20;99.90;;;;;;4917511;29;20530;-70
2022/11/10 15:38:29;;;;;;;0.60;0.10;;;14.20;99.90;;;;;;4924746;29;20449;-69
2022/11/10 15:41:14;;;;;;;0.70;0.30;;;14.00;99.90;;;;;;4932371;29;20485;-70
2022/11/10 15:43:43;;;;;;;0.60;0.20;;;14.00;99.90;;;;;;4930671;29;20555;-71
2022/11/10 15:46:14;;;;;;;0.90;0.50;;;14.00;99.90;;;;;;4936187;29;20448;-69
2022/11/10 15:48:48;;;;;;;0.60;0.10;;;13.90;99.90;;;;;;4936624;29;20456;-74
2022/11/10 15:51:18;;;;;;;0.60;0.20;;;13.90;99.90;;;;;;4929162;29;20496;-71
2022/11/10 15:53:53;;;;;;;0.60;0.10;;;13.90;99.90;;;;;;4921033;29;20460;-70
2022/11/10 15:56:23;;;;;;;0.60;0.20;;;13.80;99.90;;;;;;4933742;29;21005;-69
2022/11/10 15:58:52;;;;;;;0.60;0.10;;;13.80;99.90;;;;;;4934395;29;20823;-71
2022/11/10 16:01:27;;;;;;;0.60;0.10;;;13.80;99.90;;;;;;4917197;29;20475;-70
2022/11/10 16:03:56;;;;;;;0.60;0.10;;;13.70;99.90;;;;;;4920390;29;20780;-70
2022/11/10 16:06:24;;;;;;;4.03;2.03;;;13.70;99.90;;;;;;4928454;29;20481;-69
2022/11/10 16:08:52;;;;;;;0.60;0.10;;;13.70;99.90;;;;;;4932469;29;20512;-69
2022/11/10 16:11:21;;;;;;;0.87;0.87;;;13.70;99.90;;;;;;4925992;29;20476;-70
2022/11/10 16:13:51;;;;;;;0.60;0.10;;;13.70;99.90;;;;;;4932358;29;20496;-71
2022/11/10 16:16:22;;;;;;;0.60;0.10;;;13.70;99.90;;;;;;4935631;29;20488;-70
2022/11/10 16:18:50;;;;;;;0.60;0.10;;;13.60;99.90;;;;;;4936070;29;20833;-69
2022/11/10 16:21:21;;;;;;;0.50;0.10;;;13.60;99.90;;;;;;4935002;29;20542;-70
2022/11/10 16:23:49;;;;;;;0.60;0.10;;;13.60;99.90;;;;;;4934362;29;20486;-71
2022/11/10 16:26:20;;;;;;;0.60;0.10;;;13.60;99.90;;;;;;4936264;29;20447;-75
2022/11/10 16:28:48;;;;;;;0.60;0.10;;;13.50;99.90;;;;;;4934329;29;20452;-69
2022/11/10 16:31:17;;;;;;;0.70;0.50;;;13.50;99.90;;;;;;4935510;29;20472;-70
2022/11/10 16:33:46;;;;;;;0.60;0.10;;;13.50;99.90;;;;;;4933355;29;20463;-69
2022/11/10 16:36:23;;;;;;;0.60;0.17;;;13.40;99.90;;;;;;4932536;29;21005;-70
2022/11/10 16:38:51;;;;;;;0.60;0.30;;;13.30;99.90;;;;;;4925731;29;20885;-72
2022/11/10 16:41:19;;;;;;;0.70;0.30;;;13.30;99.90;;;;;;4920550;29;20489;-71
2022/11/10 16:43:47;;;;;;;0.70;0.37;;;13.20;99.90;;;;;;4933778;29;20547;-70
2022/11/10 16:46:19;;;;;;;0.60;0.10;;;13.20;99.90;;;;;;4935228;29;20460;-70
2022/11/10 16:48:48;;;;;;;0.70;0.30;;;13.10;99.90;;;;;;4935097;29;20456;-72
2022/11/10 16:51:16;;;;;;;1.87;0.40;;;13.10;99.90;;;;;;4930191;29;20473;-72
2022/11/10 16:53:46;;;;;;;0.60;0.10;;;13.10;99.90;;;;;;4928173;29;20683;-72
2022/11/10 16:56:15;;;;;;;1.37;1.27;;;13.10;99.90;;;;;;4927562;29;20555;-72
2022/11/10 16:58:43;;;;;;;1.00;0.30;;;12.30;99.90;;;;;;4922602;29;20449;-71
2022/11/10 17:01:18;;;;;;;0.60;0.20;;;13.00;99.90;;;;;;4925204;29;20472;-71
2022/11/10 17:03:49;;;;;;;0.60;0.10;;;13.00;99.90;;;;;;4926381;29;20507;-72
2022/11/10 17:06:18;;;;;;;1.80;0.67;;;13.00;99.90;;;;;;4926351;29;20995;-71
2022/11/10 17:08:50;;;;;;;0.60;0.20;;;13.00;99.90;;;;;;4923972;29;20528;-70
2022/11/10 17:11:18;;;;;;;0.60;0.20;;;12.90;99.90;;;;;;4933790;29;20478;-71
2022/11/10 17:13:46;;;;;;;0.50;0.10;;;12.90;99.90;;;;;;4934536;29;20867;-71
2022/11/10 17:16:20;;;;;;;0.53;0.20;;;13.00;99.90;;;;;;4935636;29;20475;-70
2022/11/10 17:18:49;;;;;;;0.60;0.10;;;13.00;99.90;;;;;;4934813;29;20849;-70
2022/11/10 17:21:16;;;;;;;1.00;0.67;;;13.00;99.90;;;;;;4934984;29;20547;-69